createdAt,value
2018-12-04T00:00:16.928Z,11.08
2018-12-04T00:01:16.924Z,11.02
2018-12-04T00:02:16.916Z,10.99
2018-12-04T00:03:16.907Z,10.94
2018-12-04T00:04:16.900Z,10.94
2018-12-04T00:05:16.938Z,10.93
2018-12-04T00:06:16.880Z,10.80
2018-12-04T00:07:16.872Z,10.90
2018-12-04T00:08:16.864Z,10.83
2018-12-04T00:09:16.861Z,10.91
2018-12-04T00:10:16.857Z,10.90
2018-12-04T00:11:16.845Z,10.91
2018-12-04T00:12:16.836Z,10.87
2018-12-04T00:13:16.824Z,10.76
2018-12-04T00:14:16.816Z,10.81
2018-12-04T00:15:16.812Z,10.75
2018-12-04T00:16:16.805Z,10.70
2018-12-04T00:17:16.792Z,10.68
2018-12-04T00:18:16.784Z,10.69
2018-12-04T00:19:16.778Z,10.76
2018-12-04T00:20:16.767Z,10.70
2018-12-04T00:21:16.765Z,10.69
2018-12-04T00:22:16.759Z,10.76
2018-12-04T00:23:16.747Z,10.76
2018-12-04T00:24:16.739Z,10.68
2018-12-04T00:25:16.727Z,10.76
2018-12-04T00:26:16.719Z,10.73
2018-12-04T00:27:16.711Z,10.86
2018-12-04T00:28:16.706Z,10.83
2018-12-04T00:29:16.699Z,10.80
2018-12-04T00:30:16.691Z,10.72
2018-12-04T00:31:16.677Z,10.84
2018-12-04T00:32:16.670Z,10.78
2018-12-04T00:33:16.667Z,10.63
2018-12-04T00:34:16.659Z,10.72
2018-12-04T00:35:16.650Z,10.72
2018-12-04T00:36:16.642Z,10.69
2018-12-04T00:37:16.629Z,10.68
2018-12-04T00:38:16.620Z,10.70
2018-12-04T00:39:16.612Z,10.83
2018-12-04T00:40:16.605Z,10.73
2018-12-04T00:41:16.602Z,10.76
2018-12-04T00:42:16.593Z,10.66
2018-12-04T00:43:16.585Z,10.76
2018-12-04T00:44:16.576Z,10.83
2018-12-04T00:45:16.564Z,10.76
2018-12-04T00:46:16.556Z,10.87
2018-12-04T00:47:16.551Z,10.84
2018-12-04T00:48:16.543Z,10.83
2018-12-04T00:49:16.532Z,10.68
2018-12-04T00:50:16.523Z,10.75
2018-12-04T00:51:16.515Z,10.66
2018-12-04T00:52:16.508Z,10.72
2018-12-04T00:53:16.503Z,10.81
2018-12-04T00:54:16.497Z,10.80
2018-12-04T00:55:16.487Z,10.83
2018-12-04T00:56:16.479Z,10.80
2018-12-04T00:57:16.468Z,10.87
2018-12-04T00:58:16.459Z,10.83
2018-12-04T00:59:16.450Z,10.73
2018-12-04T01:00:16.443Z,10.70
2018-12-04T01:01:16.442Z,10.72
2018-12-04T01:02:16.430Z,10.72
2018-12-04T01:03:16.418Z,10.66
2018-12-04T01:04:16.410Z,10.58
2018-12-04T01:05:16.406Z,10.63
2018-12-04T01:06:16.401Z,10.68
2018-12-04T01:07:16.391Z,10.65
2018-12-04T01:08:16.383Z,10.66
2018-12-04T01:09:16.370Z,10.62
2018-12-04T01:10:16.362Z,10.63
2018-12-04T01:11:16.353Z,10.63
2018-12-04T01:12:16.345Z,10.65
2018-12-04T01:13:16.342Z,10.66
2018-12-04T01:14:16.336Z,10.66
2018-12-04T01:15:16.324Z,10.68
2018-12-04T01:16:16.318Z,10.70
2018-12-04T01:17:16.305Z,10.70
2018-12-04T01:18:16.298Z,10.69
2018-12-04T01:19:16.294Z,10.73
2018-12-04T01:20:16.286Z,10.68
2018-12-04T01:21:16.272Z,10.73
2018-12-04T01:22:16.269Z,10.68
2018-12-04T01:23:16.256Z,10.66
2018-12-04T01:24:16.250Z,10.68
2018-12-04T01:25:16.247Z,10.68
2018-12-04T01:26:16.238Z,10.72
2018-12-04T01:27:16.232Z,10.65
2018-12-04T01:28:16.221Z,10.62
2018-12-04T01:29:16.209Z,10.65
2018-12-04T01:30:16.200Z,10.69
2018-12-04T01:31:16.191Z,10.62
2018-12-04T01:32:16.184Z,10.60
2018-12-04T01:33:16.180Z,10.54
2018-12-04T01:34:16.173Z,10.54
2018-12-04T01:35:16.159Z,10.58
2018-12-04T01:36:16.152Z,10.58
2018-12-04T01:37:16.147Z,10.55
2018-12-04T01:38:16.143Z,10.55
2018-12-04T01:39:16.131Z,10.54
2018-12-04T01:40:16.127Z,10.51
2018-12-04T01:41:16.112Z,10.63
2018-12-04T01:42:16.105Z,10.57
2018-12-04T01:43:16.096Z,10.55
2018-12-04T01:44:16.088Z,10.58
2018-12-04T01:45:16.083Z,10.65
2018-12-04T01:46:16.076Z,10.51
2018-12-04T01:47:16.072Z,10.49
2018-12-04T01:48:16.059Z,10.57
2018-12-04T01:49:16.048Z,10.62
2018-12-04T01:50:16.039Z,10.52
2018-12-04T01:51:16.035Z,10.66
2018-12-04T01:52:16.030Z,10.57
2018-12-04T01:53:16.014Z,10.55
2018-12-04T01:54:16.006Z,10.47
2018-12-04T01:55:15.998Z,10.55
2018-12-04T01:56:15.990Z,10.60
2018-12-04T01:57:15.992Z,10.52
2018-12-04T01:58:15.980Z,10.57
2018-12-04T01:59:15.970Z,10.58
2018-12-04T02:00:15.962Z,10.60
2018-12-04T02:01:15.952Z,10.55
2018-12-04T02:02:15.942Z,10.49
2018-12-04T02:03:15.935Z,10.51
2018-12-04T02:04:15.926Z,10.47
2018-12-04T02:05:15.921Z,10.57
2018-12-04T02:06:15.917Z,10.55
2018-12-04T02:07:15.901Z,10.55
2018-12-04T02:08:15.893Z,10.44
2018-12-04T02:09:15.891Z,10.52
2018-12-04T02:10:15.883Z,10.47
2018-12-04T02:11:15.872Z,10.46
2018-12-04T02:12:15.865Z,10.46
2018-12-04T02:13:15.854Z,10.47
2018-12-04T02:14:15.845Z,10.44
2018-12-04T02:15:15.836Z,10.55
2018-12-04T02:16:15.827Z,10.49
2018-12-04T02:17:15.825Z,10.49
2018-12-04T02:18:15.816Z,10.39
2018-12-04T02:19:15.808Z,10.47
2018-12-04T02:20:15.801Z,10.35
2018-12-04T02:21:15.792Z,10.47
2018-12-04T02:22:15.779Z,10.34
2018-12-04T02:23:15.776Z,10.38
2018-12-04T02:24:15.768Z,10.42
2018-12-04T02:25:15.754Z,10.46
2018-12-04T02:26:15.749Z,10.43
2018-12-04T02:27:15.738Z,10.44
2018-12-04T02:28:15.729Z,10.43
2018-12-04T02:29:15.726Z,10.47
2018-12-04T02:30:15.718Z,10.49
2018-12-04T02:31:15.711Z,10.43
2018-12-04T02:32:15.701Z,10.52
2018-12-04T02:33:15.689Z,10.46
2018-12-04T02:34:15.682Z,10.49
2018-12-04T02:35:15.672Z,10.44
2018-12-04T02:36:15.665Z,10.44
2018-12-04T02:37:15.662Z,10.44
2018-12-04T02:38:15.652Z,10.44
2018-12-04T02:39:15.640Z,10.52
2018-12-04T02:40:15.636Z,10.52
2018-12-04T02:41:15.637Z,10.46
2018-12-04T02:42:15.622Z,10.44
2018-12-04T02:43:15.610Z,10.46
2018-12-04T02:44:15.603Z,10.43
2018-12-04T02:45:15.591Z,10.46
2018-12-04T02:46:15.607Z,10.44
2018-12-04T02:47:15.576Z,10.44
2018-12-04T02:48:15.568Z,10.51
2018-12-04T02:49:15.563Z,10.57
2018-12-04T02:50:15.555Z,10.47
2018-12-04T02:51:15.548Z,10.52
2018-12-04T02:52:15.540Z,10.55
2018-12-04T02:53:15.526Z,10.43
2018-12-04T02:54:15.518Z,10.44
2018-12-04T02:55:15.515Z,10.49
2018-12-04T02:56:15.506Z,10.44
2018-12-04T02:57:15.494Z,10.43
2018-12-04T02:58:15.487Z,10.42
2018-12-04T02:59:15.479Z,10.49
2018-12-04T03:00:15.469Z,10.49
2018-12-04T03:01:15.467Z,10.36
2018-12-04T03:02:15.457Z,10.38
2018-12-04T03:03:15.448Z,10.36
2018-12-04T03:04:15.440Z,10.44
2018-12-04T03:05:15.437Z,10.39
2018-12-04T03:06:15.424Z,10.44
2018-12-04T03:07:15.413Z,10.34
2018-12-04T03:08:15.405Z,10.44
2018-12-04T03:09:15.403Z,10.51
2018-12-04T03:10:15.393Z,10.32
2018-12-04T03:11:15.378Z,10.44
2018-12-04T03:12:15.375Z,10.51
2018-12-04T03:13:15.367Z,10.46
2018-12-04T03:14:15.360Z,10.46
2018-12-04T03:15:15.351Z,10.43
2018-12-04T03:16:15.343Z,10.44
2018-12-04T03:17:15.333Z,10.47
2018-12-04T03:18:15.326Z,10.44
2018-12-04T03:19:15.313Z,10.43
2018-12-04T03:20:15.306Z,10.42
2018-12-04T03:21:15.304Z,10.39
2018-12-04T03:22:15.295Z,10.39
2018-12-04T03:23:15.287Z,10.38
2018-12-04T03:24:15.279Z,10.43
2018-12-04T03:25:15.267Z,10.42
2018-12-04T03:26:15.257Z,10.44
2018-12-04T03:27:15.253Z,10.36
2018-12-04T03:28:15.245Z,10.22
2018-12-04T03:29:15.231Z,10.24
2018-12-04T03:30:15.226Z,10.26
2018-12-04T03:31:15.217Z,10.22
2018-12-04T03:32:15.208Z,10.20
2018-12-04T03:33:15.209Z,10.20
2018-12-04T03:34:15.197Z,10.22
2018-12-04T03:35:15.187Z,10.28
2018-12-04T03:36:15.180Z,10.28
2018-12-04T03:37:15.169Z,10.18
2018-12-04T03:38:15.159Z,10.18
2018-12-04T03:39:15.150Z,10.22
2018-12-04T03:40:15.147Z,10.29
2018-12-04T03:41:15.139Z,10.20
2018-12-04T03:42:15.131Z,10.18
2018-12-04T03:43:15.119Z,10.24
2018-12-04T03:44:15.110Z,10.22
2018-12-04T03:45:15.105Z,10.26
2018-12-04T03:46:15.098Z,10.26
2018-12-04T03:47:15.087Z,10.24
2018-12-04T03:48:15.079Z,10.24
2018-12-04T03:49:15.072Z,10.36
2018-12-04T03:50:15.063Z,10.28
2018-12-04T03:51:15.050Z,10.26
2018-12-04T03:52:15.043Z,10.25
2018-12-04T03:53:15.044Z,10.24
2018-12-04T03:54:15.031Z,10.20
2018-12-04T03:55:15.021Z,10.28
2018-12-04T03:56:15.013Z,10.20
2018-12-04T03:57:15.008Z,10.36
2018-12-04T03:58:14.993Z,10.26
2018-12-04T03:59:14.989Z,10.22
2018-12-04T04:00:14.979Z,10.25
2018-12-04T04:01:14.967Z,10.28
2018-12-04T04:02:14.959Z,10.24
2018-12-04T04:03:14.951Z,10.24
2018-12-04T04:04:14.942Z,10.31
2018-12-04T04:05:14.941Z,10.24
2018-12-04T04:06:14.931Z,10.18
2018-12-04T04:07:14.928Z,10.22
2018-12-04T04:08:14.915Z,10.24
2018-12-04T04:09:14.901Z,10.28
2018-12-04T04:10:14.893Z,10.35
2018-12-04T04:11:14.883Z,10.31
2018-12-04T04:12:14.879Z,10.29
2018-12-04T04:13:14.871Z,10.36
2018-12-04T04:14:14.863Z,10.38
2018-12-04T04:15:14.850Z,10.35
2018-12-04T04:16:14.842Z,10.39
2018-12-04T04:17:14.839Z,10.39
2018-12-04T04:18:14.833Z,10.32
2018-12-04T04:19:14.822Z,10.39
2018-12-04T04:20:14.815Z,10.34
2018-12-04T04:21:14.800Z,10.43
2018-12-04T04:22:14.792Z,10.51
2018-12-04T04:23:14.784Z,10.39
2018-12-04T04:24:14.775Z,10.34
2018-12-04T04:25:14.772Z,10.24
2018-12-04T04:26:14.791Z,10.22
2018-12-04T04:27:14.762Z,10.34
2018-12-04T04:28:14.750Z,10.38
2018-12-04T04:29:14.739Z,10.24
2018-12-04T04:30:14.726Z,10.22
2018-12-04T04:31:14.726Z,10.25
2018-12-04T04:32:14.713Z,10.25
2018-12-04T04:33:14.701Z,10.22
2018-12-04T04:34:14.692Z,10.22
2018-12-04T04:35:14.684Z,10.20
2018-12-04T04:36:14.675Z,10.22
2018-12-04T04:37:14.673Z,10.24
2018-12-04T04:38:14.664Z,10.16
2018-12-04T04:39:14.656Z,10.18
2018-12-04T04:40:14.650Z,10.14
2018-12-04T04:41:14.635Z,10.22
2018-12-04T04:42:14.625Z,10.17
2018-12-04T04:43:14.616Z,10.17
2018-12-04T04:44:14.608Z,10.17
2018-12-04T04:45:14.606Z,10.14
2018-12-04T04:46:14.745Z,10.09
2018-12-04T04:47:14.585Z,10.14
2018-12-04T04:48:14.575Z,10.13
2018-12-04T04:49:14.572Z,10.09
2018-12-04T04:50:14.564Z,10.07
2018-12-04T04:51:14.554Z,10.09
2018-12-04T04:52:14.546Z,10.13
2018-12-04T04:53:14.539Z,10.06
2018-12-04T04:54:14.524Z,10.06
2018-12-04T04:55:14.518Z,10.10
2018-12-04T04:56:14.509Z,10.04
2018-12-04T04:57:14.503Z,10.07
2018-12-04T04:58:14.494Z,10.01
2018-12-04T04:59:14.528Z,9.88
2018-12-04T05:00:14.481Z,9.89
2018-12-04T05:01:14.466Z,9.89
2018-12-04T05:02:14.456Z,9.92
2018-12-04T05:03:14.453Z,9.92
2018-12-04T05:04:14.444Z,9.92
2018-12-04T05:05:14.431Z,9.89
2018-12-04T05:06:14.423Z,9.89
2018-12-04T05:07:14.421Z,9.78
2018-12-04T05:08:14.407Z,9.92
2018-12-04T05:09:14.401Z,9.78
2018-12-04T05:10:14.396Z,9.92
2018-12-04T05:11:14.383Z,9.88
2018-12-04T05:12:14.378Z,9.91
2018-12-04T05:13:14.366Z,9.91
2018-12-04T05:14:14.354Z,9.85
2018-12-04T05:15:14.344Z,9.89
2018-12-04T05:16:14.336Z,9.89
2018-12-04T05:17:14.333Z,9.95
2018-12-04T05:18:14.329Z,9.89
2018-12-04T05:19:14.310Z,9.92
2018-12-04T05:20:14.303Z,9.92
2018-12-04T05:21:14.298Z,9.96
2018-12-04T05:22:14.291Z,9.95
2018-12-04T05:23:14.284Z,9.89
2018-12-04T05:24:14.271Z,9.74
2018-12-04T05:25:14.259Z,9.81
2018-12-04T05:26:14.250Z,9.92
2018-12-04T05:27:14.241Z,9.92
2018-12-04T05:28:14.232Z,9.92
2018-12-04T05:29:14.228Z,9.92
2018-12-04T05:30:14.241Z,9.89
2018-12-04T05:31:14.212Z,9.96
2018-12-04T05:32:14.204Z,9.93
2018-12-04T05:33:14.192Z,9.95
2018-12-04T05:34:14.182Z,9.92
2018-12-04T05:35:14.182Z,9.92
2018-12-04T05:36:14.169Z,9.92
2018-12-04T05:37:14.155Z,9.96
2018-12-04T05:38:14.147Z,9.81
2018-12-04T05:39:14.137Z,9.93
2018-12-04T05:40:14.129Z,9.93
2018-12-04T05:41:14.129Z,9.91
2018-12-04T05:42:14.116Z,9.95
2018-12-04T05:43:14.108Z,9.92
2018-12-04T05:44:14.099Z,9.92
2018-12-04T05:45:14.086Z,9.96
2018-12-04T05:46:14.078Z,9.89
2018-12-04T05:47:14.069Z,9.92
2018-12-04T05:48:14.061Z,9.89
2018-12-04T05:49:14.057Z,9.88
2018-12-04T05:50:14.049Z,9.85
2018-12-04T05:51:14.035Z,9.77
2018-12-04T05:52:14.026Z,9.75
2018-12-04T05:53:14.023Z,9.80
2018-12-04T05:54:14.023Z,9.71
2018-12-04T05:55:14.005Z,9.78
2018-12-04T05:56:13.995Z,9.85
2018-12-04T05:57:13.983Z,9.80
2018-12-04T05:58:13.973Z,9.73
2018-12-04T05:59:13.971Z,9.73
2018-12-04T06:00:13.958Z,9.74
2018-12-04T06:01:13.954Z,9.81
2018-12-04T06:02:13.945Z,9.89
2018-12-04T06:03:13.934Z,9.92
2018-12-04T06:04:13.926Z,9.92
2018-12-04T06:05:13.916Z,9.86
2018-12-04T06:06:13.906Z,9.91
2018-12-04T06:07:13.899Z,9.96
2018-12-04T06:08:13.891Z,9.88
2018-12-04T06:09:13.880Z,9.83
2018-12-04T06:10:13.870Z,9.81
2018-12-04T06:11:13.861Z,9.83
2018-12-04T06:12:13.852Z,9.80
2018-12-04T06:13:13.849Z,9.80
2018-12-04T06:14:13.850Z,9.74
2018-12-04T06:15:13.831Z,9.78
2018-12-04T06:16:13.823Z,9.75
2018-12-04T06:17:13.810Z,9.75
2018-12-04T06:18:13.801Z,9.78
2018-12-04T06:19:13.792Z,9.73
2018-12-04T06:20:13.783Z,9.80
2018-12-04T06:21:13.779Z,9.71
2018-12-04T06:22:13.772Z,9.70
2018-12-04T06:23:13.757Z,9.83
2018-12-04T06:24:13.750Z,9.73
2018-12-04T06:25:13.756Z,9.73
2018-12-04T06:26:13.741Z,9.71
2018-12-04T06:27:13.728Z,9.74
2018-12-04T06:28:13.719Z,9.77
2018-12-04T06:29:13.705Z,9.75
2018-12-04T06:30:13.698Z,9.59
2018-12-04T06:31:13.688Z,9.67
2018-12-04T06:32:13.679Z,9.67
2018-12-04T06:33:13.676Z,9.67
2018-12-04T06:34:13.666Z,9.68
2018-12-04T06:35:13.659Z,9.70
2018-12-04T06:36:13.648Z,9.73
2018-12-04T06:37:13.635Z,9.67
2018-12-04T06:38:13.628Z,9.60
2018-12-04T06:39:13.626Z,9.71
2018-12-04T06:40:13.617Z,9.60
2018-12-04T06:41:13.601Z,9.70
2018-12-04T06:42:13.591Z,9.62
2018-12-04T06:43:13.582Z,9.63
2018-12-04T06:44:13.576Z,9.60
2018-12-04T06:45:13.572Z,9.63
2018-12-04T06:46:13.563Z,9.62
2018-12-04T06:47:13.556Z,9.55
2018-12-04T06:48:13.545Z,9.63
2018-12-04T06:49:13.530Z,9.60
2018-12-04T06:50:13.522Z,9.58
2018-12-04T06:51:13.517Z,9.59
2018-12-04T06:52:13.503Z,9.52
2018-12-04T06:53:13.499Z,9.62
2018-12-04T06:54:13.490Z,9.62
2018-12-04T06:55:13.478Z,9.55
2018-12-04T06:56:13.471Z,9.59
2018-12-04T06:57:13.464Z,9.53
2018-12-04T06:58:13.455Z,9.62
2018-12-04T06:59:13.454Z,9.52
2018-12-04T07:00:13.448Z,9.60
2018-12-04T07:01:13.425Z,9.52
2018-12-04T07:02:13.422Z,9.50
2018-12-04T07:03:13.406Z,9.52
2018-12-04T07:04:13.403Z,9.53
2018-12-04T07:05:13.393Z,9.58
2018-12-04T07:06:13.384Z,9.50
2018-12-04T07:07:13.375Z,9.52
2018-12-04T07:08:13.371Z,9.45
2018-12-04T07:09:13.358Z,9.49
2018-12-04T07:10:13.348Z,9.48
2018-12-04T07:11:13.342Z,9.55
2018-12-04T07:12:13.330Z,9.50
2018-12-04T07:13:13.323Z,9.50
2018-12-04T07:14:13.310Z,9.50
2018-12-04T07:15:13.301Z,9.49
2018-12-04T07:16:13.290Z,9.37
2018-12-04T07:17:13.286Z,9.48
2018-12-04T07:18:13.283Z,9.53
2018-12-04T07:19:13.269Z,9.52
2018-12-04T07:20:13.259Z,9.52
2018-12-04T07:21:13.245Z,9.52
2018-12-04T07:22:13.237Z,9.52
2018-12-04T07:23:13.228Z,9.53
2018-12-04T07:24:13.219Z,9.52
2018-12-04T07:25:13.215Z,9.60
2018-12-04T07:26:13.208Z,9.65
2018-12-04T07:27:13.192Z,9.63
2018-12-04T07:28:13.184Z,9.67
2018-12-04T07:29:13.182Z,9.65
2018-12-04T07:30:13.176Z,9.60
2018-12-04T07:31:13.161Z,9.67
2018-12-04T07:32:13.152Z,9.62
2018-12-04T07:33:13.140Z,9.58
2018-12-04T07:34:13.130Z,9.62
2018-12-04T07:35:13.121Z,9.68
2018-12-04T07:36:13.114Z,9.67
2018-12-04T07:37:13.108Z,9.67
2018-12-04T07:38:13.111Z,9.70
2018-12-04T07:39:13.141Z,9.62
2018-12-04T07:40:13.083Z,9.65
2018-12-04T07:41:13.076Z,9.59
2018-12-04T07:42:13.060Z,9.62
2018-12-04T07:43:13.057Z,9.78
2018-12-04T07:44:13.047Z,9.70
2018-12-04T07:45:13.034Z,9.70
2018-12-04T07:46:13.025Z,9.67
2018-12-04T07:47:13.016Z,9.70
2018-12-04T07:48:13.009Z,9.74
2018-12-04T07:49:13.002Z,9.68
2018-12-04T07:50:12.997Z,9.73
2018-12-04T07:51:12.985Z,9.78
2018-12-04T07:52:12.976Z,9.62
2018-12-04T07:53:12.966Z,9.74
2018-12-04T07:54:12.954Z,9.71
2018-12-04T07:55:12.945Z,9.83
2018-12-04T07:56:12.937Z,9.80
2018-12-04T07:57:12.934Z,9.74
2018-12-04T07:58:12.925Z,9.85
2018-12-04T07:59:12.911Z,9.75
2018-12-04T08:00:12.906Z,9.75
2018-12-04T08:01:12.906Z,9.75
2018-12-04T08:02:12.890Z,9.75
2018-12-04T08:03:12.881Z,9.80
2018-12-04T08:04:12.875Z,9.75
2018-12-04T08:05:12.859Z,9.75
2018-12-04T08:06:12.850Z,9.73
2018-12-04T08:07:12.843Z,9.77
2018-12-04T08:08:12.833Z,9.83
2018-12-04T08:09:12.830Z,9.86
2018-12-04T08:10:12.821Z,9.88
2018-12-04T08:11:12.811Z,9.95
2018-12-04T08:12:12.803Z,10.04
2018-12-04T08:13:12.790Z,9.99
2018-12-04T08:14:12.782Z,9.99
2018-12-04T08:15:12.778Z,10.10
2018-12-04T08:16:12.768Z,10.09
2018-12-04T08:17:12.757Z,10.16
2018-12-04T08:18:12.749Z,10.17
2018-12-04T08:19:12.738Z,10.11
2018-12-04T08:20:12.731Z,10.25
2018-12-04T08:21:12.728Z,10.22
2018-12-04T08:22:12.729Z,10.20
2018-12-04T08:23:12.711Z,10.35
2018-12-04T08:24:12.710Z,10.36
2018-12-04T08:25:12.690Z,10.35
2018-12-04T08:26:12.680Z,10.46
2018-12-04T08:27:12.672Z,10.42
2018-12-04T08:28:12.663Z,10.47
2018-12-04T08:29:12.660Z,10.52
2018-12-04T08:30:12.651Z,10.57
2018-12-04T08:31:12.638Z,10.68
2018-12-04T08:32:12.630Z,10.70
2018-12-04T08:33:12.626Z,10.70
2018-12-04T08:34:12.619Z,10.87
2018-12-04T08:35:12.610Z,10.83
2018-12-04T08:36:12.605Z,10.80
2018-12-04T08:37:12.589Z,10.99
2018-12-04T08:38:12.582Z,11.11
2018-12-04T08:39:13.220Z,11.20
2018-12-04T08:40:12.566Z,11.12
2018-12-04T08:41:12.566Z,11.27
2018-12-04T08:42:12.556Z,11.17
2018-12-04T08:43:12.545Z,11.28
2018-12-04T08:44:12.538Z,11.26
2018-12-04T08:45:12.527Z,11.12
2018-12-04T08:46:12.519Z,11.19
2018-12-04T08:47:12.514Z,11.24
2018-12-04T08:48:12.507Z,11.24
2018-12-04T08:49:12.495Z,11.30
2018-12-04T08:50:12.487Z,11.23
2018-12-04T08:51:12.479Z,11.28
2018-12-04T08:52:12.471Z,11.20
2018-12-04T08:53:12.470Z,11.24
2018-12-04T08:54:12.460Z,11.17
2018-12-04T08:55:12.454Z,11.13
2018-12-04T08:56:12.446Z,11.24
2018-12-04T08:57:12.433Z,11.21
2018-12-04T08:58:12.426Z,11.27
2018-12-04T08:59:12.416Z,11.20
2018-12-04T09:00:12.409Z,11.33
2018-12-04T09:01:12.406Z,11.46
2018-12-04T09:02:12.398Z,11.51
2018-12-04T09:03:12.387Z,11.67
2018-12-04T09:04:12.383Z,11.88
2018-12-04T09:05:12.456Z,12.01
2018-12-04T09:06:12.376Z,12.07
2018-12-04T09:07:12.361Z,12.04
2018-12-04T09:08:12.386Z,12.12
2018-12-04T09:09:12.342Z,12.11
2018-12-04T09:10:12.335Z,12.08
2018-12-04T09:11:12.327Z,12.08
2018-12-04T09:12:12.321Z,12.11
2018-12-04T09:13:12.318Z,12.07
2018-12-04T09:14:12.310Z,11.87
2018-12-04T09:15:12.304Z,11.94
2018-12-04T09:16:12.297Z,11.96
2018-12-04T09:17:12.285Z,11.81
2018-12-04T09:18:12.283Z,11.74
2018-12-04T09:19:12.331Z,11.69
2018-12-04T09:20:12.311Z,11.62
2018-12-04T09:21:12.267Z,11.51
2018-12-04T09:22:12.324Z,11.45
2018-12-04T09:23:12.246Z,11.39
2018-12-04T09:24:12.304Z,11.35
2018-12-04T09:25:12.254Z,11.87
2018-12-04T09:26:12.225Z,12.59
2018-12-04T09:27:12.301Z,13.47
2018-12-04T09:28:12.313Z,14.02
2018-12-04T09:29:12.242Z,14.74
2018-12-04T09:30:12.217Z,15.33
2018-12-04T09:31:12.184Z,15.91
2018-12-04T09:32:12.180Z,16.32
2018-12-04T09:33:12.178Z,16.78
2018-12-04T09:34:12.172Z,17.20
2018-12-04T09:35:12.161Z,17.74
2018-12-04T09:36:12.156Z,18.16
2018-12-04T09:37:12.157Z,18.65
2018-12-04T09:38:12.153Z,18.94
2018-12-04T09:39:12.147Z,19.25
2018-12-04T09:40:12.148Z,19.58
2018-12-04T09:41:12.136Z,20.02
2018-12-04T09:42:12.132Z,20.10
2018-12-04T09:43:12.130Z,20.44
2018-12-04T09:44:12.127Z,20.53
2018-12-04T09:45:12.131Z,20.82
2018-12-04T09:46:12.129Z,21.06
2018-12-04T09:47:12.127Z,21.16
2018-12-04T09:48:12.124Z,21.31
2018-12-04T09:49:12.118Z,21.51
2018-12-04T09:50:12.117Z,21.70
2018-12-04T09:51:12.123Z,21.68
2018-12-04T09:52:12.121Z,21.85
2018-12-04T09:53:12.115Z,21.83
2018-12-04T09:54:12.116Z,21.96
2018-12-04T09:55:12.114Z,22.06
2018-12-04T09:56:12.114Z,22.01
2018-12-04T09:57:12.120Z,21.90
2018-12-04T09:58:12.121Z,21.94
2018-12-04T09:59:12.159Z,21.91
2018-12-04T10:00:12.121Z,21.74
2018-12-04T10:01:12.118Z,21.74
2018-12-04T10:02:12.120Z,21.81
2018-12-04T10:03:12.119Z,22.08
2018-12-04T10:04:12.126Z,21.99
2018-12-04T10:05:12.130Z,22.20
2018-12-04T10:06:12.129Z,22.26
2018-12-04T10:07:12.125Z,22.27
2018-12-04T10:08:12.126Z,22.31
2018-12-04T10:09:12.134Z,22.46
2018-12-04T10:10:12.151Z,22.38
2018-12-04T10:11:12.135Z,22.36
2018-12-04T10:12:12.185Z,22.46
2018-12-04T10:13:12.138Z,22.66
2018-12-04T10:14:12.139Z,22.85
2018-12-04T10:15:12.139Z,22.24
2018-12-04T10:16:12.140Z,22.21
2018-12-04T10:17:12.148Z,22.09
2018-12-04T10:18:12.149Z,22.17
2018-12-04T10:19:12.161Z,22.27
2018-12-04T10:20:12.153Z,22.23
2018-12-04T10:21:12.150Z,21.91
2018-12-04T10:22:12.152Z,21.94
2018-12-04T10:23:12.160Z,22.12
2018-12-04T10:24:12.161Z,21.99
2018-12-04T10:25:12.159Z,21.11
2018-12-04T10:26:12.203Z,21.21
2018-12-04T10:27:12.168Z,21.71
2018-12-04T10:28:12.165Z,21.83
2018-12-04T10:29:12.172Z,22.19
2018-12-04T10:30:12.177Z,21.53
2018-12-04T10:31:12.180Z,21.42
2018-12-04T10:32:12.179Z,21.38
2018-12-04T10:33:12.177Z,20.96
2018-12-04T10:34:12.180Z,21.36
2018-12-04T10:35:12.181Z,21.64
2018-12-04T10:36:12.183Z,21.70
2018-12-04T10:37:12.190Z,21.71
2018-12-04T10:38:12.192Z,21.96
2018-12-04T10:39:12.190Z,21.66
2018-12-04T10:40:12.192Z,22.24
2018-12-04T10:41:12.199Z,22.38
2018-12-04T10:42:12.201Z,22.57
2018-12-04T10:43:12.204Z,22.23
2018-12-04T10:44:12.208Z,21.96
2018-12-04T10:45:12.205Z,21.66
2018-12-04T10:46:12.210Z,20.61
2018-12-04T10:47:12.209Z,19.90
2018-12-04T10:48:12.212Z,19.28
2018-12-04T10:49:12.222Z,18.74
2018-12-04T10:50:12.223Z,18.31
2018-12-04T10:51:12.223Z,17.96
2018-12-04T10:52:12.224Z,17.74
2018-12-04T10:53:12.222Z,17.53
2018-12-04T10:54:12.223Z,16.88
2018-12-04T10:55:12.240Z,16.73
2018-12-04T10:56:12.231Z,16.96
2018-12-04T10:57:12.226Z,17.39
2018-12-04T10:58:12.226Z,17.38
2018-12-04T10:59:12.225Z,17.36
2018-12-04T11:00:12.227Z,17.54
2018-12-04T11:01:12.231Z,17.21
2018-12-04T11:02:12.231Z,16.81
2018-12-04T11:03:12.230Z,17.33
2018-12-04T11:04:12.231Z,17.91
2018-12-04T11:05:12.224Z,17.65
2018-12-04T11:06:12.224Z,17.49
2018-12-04T11:07:12.222Z,17.33
2018-12-04T11:08:12.221Z,17.15
2018-12-04T11:09:12.225Z,16.90
2018-12-04T11:10:12.224Z,16.92
2018-12-04T11:11:12.218Z,17.20
2018-12-04T11:12:12.499Z,17.38
2018-12-04T11:13:12.220Z,17.09
2018-12-04T11:14:12.221Z,17.07
2018-12-04T11:15:12.219Z,17.07
2018-12-04T11:16:12.219Z,17.09
2018-12-04T11:17:12.211Z,17.54
2018-12-04T11:18:12.209Z,17.49
2018-12-04T11:19:12.207Z,17.35
2018-12-04T11:20:12.209Z,17.09
2018-12-04T11:21:12.209Z,17.00
2018-12-04T11:22:12.211Z,16.70
2018-12-04T11:23:12.207Z,16.78
2018-12-04T11:24:12.202Z,16.77
2018-12-04T11:25:12.196Z,16.52
2018-12-04T11:26:12.195Z,16.27
2018-12-04T11:27:12.196Z,15.85
2018-12-04T11:28:12.195Z,15.70
2018-12-04T11:29:12.188Z,15.62
2018-12-04T11:30:12.186Z,15.48
2018-12-04T11:31:12.183Z,15.37
2018-12-04T11:32:12.189Z,15.35
2018-12-04T11:33:12.184Z,15.31
2018-12-04T11:34:12.180Z,15.33
2018-12-04T11:35:12.178Z,15.34
2018-12-04T11:36:12.178Z,15.28
2018-12-04T11:37:12.167Z,15.04
2018-12-04T11:38:12.164Z,15.05
2018-12-04T11:39:12.165Z,14.52
2018-12-04T11:40:12.159Z,14.59
2018-12-04T11:41:12.159Z,14.67
2018-12-04T11:42:12.157Z,14.67
2018-12-04T11:43:12.149Z,14.64
2018-12-04T11:44:12.144Z,14.71
2018-12-04T11:45:12.145Z,14.74
2018-12-04T11:46:12.143Z,14.91
2018-12-04T11:47:12.139Z,14.95
2018-12-04T11:48:12.136Z,15.12
2018-12-04T11:49:12.126Z,15.30
2018-12-04T11:50:12.124Z,15.43
2018-12-04T11:51:12.121Z,15.40
2018-12-04T11:52:12.116Z,15.52
2018-12-04T11:53:12.117Z,15.41
2018-12-04T11:54:12.113Z,15.31
2018-12-04T11:55:12.108Z,15.22
2018-12-04T11:56:12.105Z,15.13
2018-12-04T11:57:12.098Z,15.05
2018-12-04T11:58:12.094Z,14.79
2018-12-04T11:59:12.097Z,14.82
2018-12-04T12:00:12.091Z,14.82
2018-12-04T12:01:12.082Z,14.91
2018-12-04T12:02:12.080Z,14.75
2018-12-04T12:03:12.075Z,14.85
2018-12-04T12:04:12.071Z,14.66
2018-12-04T12:05:12.072Z,14.71
2018-12-04T12:06:12.067Z,14.87
2018-12-04T12:07:12.062Z,14.69
2018-12-04T12:08:12.059Z,14.72
2018-12-04T12:09:12.050Z,14.63
2018-12-04T12:10:12.046Z,14.59
2018-12-04T12:11:12.041Z,14.45
2018-12-04T12:12:12.038Z,14.38
2018-12-04T12:13:12.039Z,14.34
2018-12-04T12:14:12.033Z,14.21
2018-12-04T12:15:17.797Z,13.98
2018-12-04T12:16:12.019Z,13.98
2018-12-04T12:17:12.020Z,13.90
2018-12-04T12:18:12.014Z,13.79
2018-12-04T12:19:12.018Z,13.61
2018-12-04T12:20:12.006Z,13.63
2018-12-04T12:21:11.995Z,13.65
2018-12-04T12:22:11.991Z,13.73
2018-12-04T12:23:11.985Z,13.81
2018-12-04T12:24:11.982Z,13.84
2018-12-04T12:25:11.982Z,13.98
2018-12-04T12:26:11.975Z,14.05
2018-12-04T12:27:11.973Z,14.08
2018-12-04T12:28:11.969Z,14.12
2018-12-04T12:29:11.956Z,14.12
2018-12-04T12:30:11.952Z,14.21
2018-12-04T12:31:11.952Z,14.21
2018-12-04T12:32:11.946Z,14.27
2018-12-04T12:33:11.937Z,14.44
2018-12-04T12:34:11.930Z,14.52
2018-12-04T12:35:11.970Z,14.60
2018-12-04T12:36:11.921Z,14.57
2018-12-04T12:37:11.920Z,14.48
2018-12-04T12:38:11.916Z,14.45
2018-12-04T12:39:11.912Z,14.46
2018-12-04T12:40:11.906Z,14.52
2018-12-04T12:41:11.899Z,14.35
2018-12-04T12:42:11.892Z,14.39
2018-12-04T12:43:11.886Z,14.29
2018-12-04T12:44:11.882Z,14.09
2018-12-04T12:45:11.883Z,13.83
2018-12-04T12:46:11.877Z,13.65
2018-12-04T12:47:11.866Z,13.53
2018-12-04T12:48:11.861Z,13.47
2018-12-04T12:49:11.861Z,13.65
2018-12-04T12:50:11.857Z,13.63
2018-12-04T12:51:11.851Z,13.65
2018-12-04T12:52:11.844Z,13.65
2018-12-04T12:53:11.835Z,13.83
2018-12-04T12:54:11.830Z,13.68
2018-12-04T12:55:11.827Z,13.65
2018-12-04T12:56:11.819Z,13.72
2018-12-04T12:57:11.820Z,13.62
2018-12-04T12:58:11.817Z,13.63